Abbott, New Mexico
Current Conditions -  °F | °C
As of 5:53 PM on Tuesday 25 Nov 2014 (Local Time) from KRTN Reporting Station
Clear Clear  
Wind Chill: 38°   Ceiling: Unl
Heat Index: 46°   Visibility: 10mi
Dew Point: 16°   Wind: 20mph
Humidity: 30%   Direction: 320°NW
Pressure: 29.99"   Gusts: 36mph
Location:  36.3883°N, 104.381°W
Report Text: KRTN 260053Z AUTO 32017G31KT 10SM CLR 08/M09 A2999 RMK AO2 PK WND 33031/0045 SLP174 T00781089
Loading
Personal Weather Stations






























Interactive Weather Map New forecast layout! Learn more

10-Day Weather Forecast

Advertisements
Track Severe Weather on mobile